Time;durP1;ratioP1;P1;durP2;ratioP2;P2;SDS_P1;SDS_P2;PMS_P1;PMS_P2;Temp;Humidity;BMP_temperature;BMP_pressure;BME280_temperature;BME280_humidity;BME280_pressure;Samples;Min_cycle;Max_cycle;Signal;HPM_P1;HPM_P2
2021/04/27 00:00:51;;;;;;;6.88;2.85;;;6.70;79.80;;;;;;4965607;28;20022;-37
2021/04/27 00:03:16;;;;;;;4.60;3.05;;;6.70;80.20;;;;;;4978078;28;20025;-38
2021/04/27 00:05:45;;;;;;;5.85;3.15;;;6.70;80.40;;;;;;4965903;28;20093;-35
2021/04/27 00:08:10;;;;;;;7.63;3.22;;;6.60;80.50;;;;;;4977151;28;20062;-37
2021/04/27 00:10:36;;;;;;;5.68;3.20;;;6.60;80.70;;;;;;4975348;28;20084;-38
2021/04/27 00:13:05;;;;;;;4.43;3.33;;;6.60;80.90;;;;;;4975694;28;20083;-36
2021/04/27 00:15:31;;;;;;;6.72;3.20;;;6.50;81.00;;;;;;4982302;28;20054;-37
2021/04/27 00:17:57;;;;;;;5.32;2.80;;;6.50;81.10;;;;;;4977593;28;20023;-37
2021/04/27 00:20:24;;;;;;;6.57;3.20;;;6.50;81.20;;;;;;4980233;28;20019;-38
2021/04/27 00:22:50;;;;;;;4.78;3.15;;;6.50;81.40;;;;;;4981387;28;20827;-35
2021/04/27 00:25:16;;;;;;;6.80;3.75;;;6.40;81.50;;;;;;4981411;28;20023;-38
2021/04/27 00:27:44;;;;;;;5.45;3.55;;;6.40;81.90;;;;;;4986242;28;20520;-38
2021/04/27 00:30:11;;;;;;;8.27;3.40;;;6.30;82.00;;;;;;4978851;28;20025;-37
2021/04/27 00:32:36;;;;;;;6.97;3.28;;;6.40;82.20;;;;;;4987478;28;20072;-36
2021/04/27 00:35:02;;;;;;;5.72;3.60;;;6.30;82.20;;;;;;4977431;28;20130;-37
2021/04/27 00:37:28;;;;;;;5.18;3.60;;;6.30;82.30;;;;;;4986955;28;20026;-37
2021/04/27 00:39:53;;;;;;;5.80;3.28;;;6.30;82.40;;;;;;4980073;28;20019;-37
2021/04/27 00:42:30;;;;;;;7.07;3.28;;;6.30;82.60;;;;;;4969247;28;20054;-36
2021/04/27 00:44:56;;;;;;;3.80;3.40;;;6.20;82.60;;;;;;4972414;28;20026;-36
2021/04/27 00:47:21;;;;;;;5.15;3.30;;;6.20;82.80;;;;;;4988575;28;20034;-38
2021/04/27 00:49:47;;;;;;;5.38;3.65;;;6.20;82.70;;;;;;4975324;28;20395;-37
2021/04/27 00:52:12;;;;;;;6.97;3.70;;;6.20;82.90;;;;;;4988069;28;20033;-37
2021/04/27 00:54:38;;;;;;;6.47;3.80;;;6.20;83.00;;;;;;4977450;28;20031;-38
2021/04/27 00:57:06;;;;;;;6.75;4.07;;;6.20;83.10;;;;;;4987166;28;20467;-31
2021/04/27 00:59:32;;;;;;;5.47;3.30;;;6.20;83.20;;;;;;4978690;28;20034;-37
2021/04/27 01:01:57;;;;;;;6.45;3.67;;;6.10;83.30;;;;;;4984679;28;20030;-38
2021/04/27 01:04:23;;;;;;;5.57;3.88;;;6.10;83.30;;;;;;4981914;28;20130;-38
2021/04/27 01:06:51;;;;;;;5.75;3.63;;;6.10;83.50;;;;;;4981480;28;20215;-37
2021/04/27 01:09:26;;;;;;;5.70;4.15;;;6.10;83.70;;;;;;4983700;28;20050;-38
2021/04/27 01:12:00;;;;;;;5.28;3.60;;;6.10;83.90;;;;;;4968331;28;20035;-35
2021/04/27 01:14:32;;;;;;;6.57;3.72;;;6.00;84.00;;;;;;4971955;28;20030;-38
2021/04/27 01:17:01;;;;;;;4.25;3.85;;;6.00;84.00;;;;;;4976094;28;20258;-38
2021/04/27 01:19:33;;;;;;;5.93;3.95;;;5.90;84.80;;;;;;4970353;28;20455;-38
2021/04/27 01:21:59;;;;;;;6.55;3.63;;;5.90;84.20;;;;;;4977141;28;20039;-37
2021/04/27 01:24:42;;;;;;;4.97;3.70;;;5.90;84.10;;;;;;4969760;28;20039;-39
2021/04/27 01:27:08;;;;;;;6.72;3.40;;;5.90;84.30;;;;;;4978307;28;20454;-31
2021/04/27 01:29:34;;;;;;;6.25;3.92;;;5.90;84.40;;;;;;4984373;28;20041;-39
2021/04/27 01:32:02;;;;;;;4.80;3.67;;;5.80;84.50;;;;;;4979068;28;20030;-35
2021/04/27 01:34:39;;;;;;;7.82;4.10;;;5.80;84.70;;;;;;4968351;28;20353;-36
2021/04/27 01:37:07;;;;;;;7.22;4.35;;;5.80;84.70;;;;;;4979326;28;20042;-38
2021/04/27 01:39:34;;;;;;;6.57;4.05;;;5.80;84.90;;;;;;4969171;28;20058;-37
2021/04/27 01:42:02;;;;;;;9.65;4.05;;;5.80;85.00;;;;;;4978356;28;20093;-38
2021/04/27 01:44:29;;;;;;;6.15;3.60;;;5.70;85.00;;;;;;4968539;28;20038;-37
2021/04/27 01:46:56;;;;;;;6.57;4.90;;;5.70;85.20;;;;;;4979497;28;20719;-35
2021/04/27 01:49:23;;;;;;;6.25;4.40;;;5.70;85.40;;;;;;4967952;28;20041;-35
2021/04/27 01:51:53;;;;;;;7.22;4.00;;;5.60;85.40;;;;;;4979904;28;20019;-37
2021/04/27 01:54:28;;;;;;;4.97;3.92;;;5.60;85.40;;;;;;4966776;28;20041;-37
2021/04/27 01:56:55;;;;;;;7.18;4.07;;;5.60;85.70;;;;;;4979875;28;20113;-37
2021/04/27 01:59:21;;;;;;;7.10;4.15;;;5.60;85.80;;;;;;4968184;28;20027;-37
2021/04/27 02:01:48;;;;;;;5.28;4.30;;;5.50;85.70;;;;;;4977115;28;20322;-38
2021/04/27 02:04:28;;;;;;;6.13;4.38;;;5.50;86.00;;;;;;4969813;28;20126;-36
2021/04/27 02:06:54;;;;;;;5.03;4.03;;;5.50;86.00;;;;;;4977278;28;20023;-36
2021/04/27 02:09:23;;;;;;;5.03;4.50;;;5.50;86.10;;;;;;4969487;28;20434;-33
2021/04/27 02:11:50;;;;;;;5.32;4.07;;;5.40;86.40;;;;;;4977631;28;20160;-36
2021/04/27 02:14:19;;;;;;;5.57;4.20;;;5.40;86.60;;;;;;4983304;28;20070;-37
2021/04/27 02:16:46;;;;;;;4.50;3.85;;;5.40;86.70;;;;;;4980303;28;20027;-39
2021/04/27 02:19:13;;;;;;;5.82;4.07;;;5.40;86.80;;;;;;4981112;28;20027;-38
2021/04/27 02:21:39;;;;;;;4.93;3.58;;;5.40;86.80;;;;;;4982855;28;20086;-38
2021/04/27 02:24:06;;;;;;;5.40;4.13;;;5.30;86.70;;;;;;4967082;28;20071;-38
2021/04/27 02:26:33;;;;;;;5.72;3.92;;;5.30;86.90;;;;;;4984895;28;20041;-38
2021/04/27 02:29:01;;;;;;;6.50;3.60;;;5.30;87.00;;;;;;4967211;28;20039;-38
2021/04/27 02:31:29;;;;;;;4.53;3.53;;;5.30;86.90;;;;;;4968759;28;20636;-37
2021/04/27 02:33:55;;;;;;;5.05;3.88;;;5.20;86.80;;;;;;4975682;28;20133;-36
2021/04/27 02:36:20;;;;;;;5.28;4.10;;;5.20;86.80;;;;;;4986244;28;20105;-38
2021/04/27 02:38:49;;;;;;;6.05;4.00;;;5.20;87.00;;;;;;4974416;28;20410;-35
2021/04/27 02:41:14;;;;;;;6.05;3.47;;;5.20;87.00;;;;;;4987030;28;20030;-39
2021/04/27 02:43:40;;;;;;;5.07;3.20;;;5.20;86.90;;;;;;4973331;28;20034;-37
2021/04/27 02:46:07;;;;;;;5.18;2.97;;;5.20;87.00;;;;;;4985352;28;20358;-39
2021/04/27 02:48:32;;;;;;;4.63;3.45;;;5.10;86.90;;;;;;4973981;28;20347;-37
2021/04/27 02:51:00;;;;;;;3.90;3.22;;;5.10;86.90;;;;;;4985547;28;20789;-36
2021/04/27 02:53:26;;;;;;;4.00;3.28;;;5.10;86.90;;;;;;4976809;28;20042;-37
2021/04/27 02:55:52;;;;;;;3.70;3.20;;;5.10;86.90;;;;;;4983345;28;20528;-36
2021/04/27 02:58:18;;;;;;;4.95;3.30;;;5.10;86.80;;;;;;4978930;28;20058;-37
2021/04/27 03:00:48;;;;;;;6.68;3.60;;;5.10;86.80;;;;;;4980537;28;20085;-35
2021/04/27 03:03:13;;;;;;;5.55;3.38;;;5.10;86.90;;;;;;4980855;28;20019;-37
2021/04/27 03:05:39;;;;;;;5.05;3.47;;;5.00;86.80;;;;;;4978709;28;20058;-35
2021/04/27 03:08:11;;;;;;;5.93;3.50;;;5.00;86.80;;;;;;4983115;28;20127;-37
2021/04/27 03:10:37;;;;;;;5.65;4.00;;;5.00;86.90;;;;;;4968870;28;20110;-37
2021/04/27 03:13:03;;;;;;;6.15;4.22;;;5.00;87.00;;;;;;4967567;28;20083;-38
2021/04/27 03:15:29;;;;;;;3.92;3.50;;;5.00;87.00;;;;;;4977277;28;20164;-38
2021/04/27 03:17:54;;;;;;;7.00;3.58;;;4.90;86.90;;;;;;4968014;28;20903;-37
2021/04/27 03:20:20;;;;;;;4.97;3.88;;;5.00;87.00;;;;;;4977632;28;20046;-32
2021/04/27 03:22:46;;;;;;;4.05;3.30;;;4.90;86.90;;;;;;4966992;28;20106;-37
2021/04/27 03:25:13;;;;;;;4.10;3.70;;;4.90;86.90;;;;;;4979069;28;20027;-39
2021/04/27 03:27:39;;;;;;;4.55;3.53;;;4.90;87.00;;;;;;4966445;28;20027;-37
2021/04/27 03:30:07;;;;;;;5.22;3.60;;;4.90;87.00;;;;;;4979254;28;20428;-34
2021/04/27 03:32:33;;;;;;;5.70;4.05;;;4.90;87.10;;;;;;4966618;28;20034;-36
2021/04/27 03:34:59;;;;;;;5.43;3.42;;;4.80;87.00;;;;;;4977390;28;20100;-37
2021/04/27 03:37:25;;;;;;;4.97;3.40;;;4.80;87.10;;;;;;4967581;28;20106;-36
2021/04/27 03:39:50;;;;;;;5.00;3.60;;;4.80;87.10;;;;;;4973952;28;20102;-37
2021/04/27 03:42:16;;;;;;;4.47;3.38;;;4.80;87.10;;;;;;4969567;28;20515;-38
2021/04/27 03:44:42;;;;;;;7.88;3.47;;;4.80;87.20;;;;;;4972114;28;20037;-37
2021/04/27 03:47:07;;;;;;;4.65;3.45;;;4.70;87.10;;;;;;4971906;28;20066;-36
2021/04/27 03:49:33;;;;;;;6.03;3.88;;;4.70;87.20;;;;;;4968959;28;20034;-38
2021/04/27 03:51:58;;;;;;;4.47;3.67;;;4.70;87.30;;;;;;4975179;28;20034;-36
2021/04/27 03:54:24;;;;;;;5.63;4.25;;;4.70;87.50;;;;;;4967060;28;20034;-35
2021/04/27 03:56:50;;;;;;;5.07;3.58;;;4.60;87.60;;;;;;4976129;28;20166;-35
2021/04/27 03:59:16;;;;;;;5.10;3.75;;;4.60;87.50;;;;;;4967536;28;20041;-37
2021/04/27 04:01:42;;;;;;;7.30;4.30;;;4.60;87.60;;;;;;4976359;28;20033;-35
2021/04/27 04:04:07;;;;;;;4.05;3.65;;;4.50;87.80;;;;;;4965798;28;20038;-37
2021/04/27 04:06:33;;;;;;;7.22;4.05;;;4.50;87.60;;;;;;4978232;28;20019;-37
2021/04/27 04:08:59;;;;;;;6.45;4.45;;;4.50;87.70;;;;;;4965450;28;20134;-37
2021/04/27 04:11:25;;;;;;;7.40;4.78;;;4.50;87.80;;;;;;4977875;28;20113;-36
2021/04/27 04:13:51;;;;;;;5.40;4.38;;;4.50;87.80;;;;;;4965655;28;20058;-35
2021/04/27 04:16:16;;;;;;;6.38;3.70;;;4.50;87.90;;;;;;4975594;28;20549;-36
2021/04/27 04:18:42;;;;;;;6.70;3.97;;;4.50;87.90;;;;;;4967777;28;20117;-36
2021/04/27 04:21:08;;;;;;;6.32;4.70;;;4.50;87.90;;;;;;4973694;28;20033;-34
2021/04/27 04:23:33;;;;;;;5.57;4.30;;;4.50;88.00;;;;;;4969827;28;20456;-37
2021/04/27 04:26:00;;;;;;;5.07;4.25;;;4.50;88.00;;;;;;4970259;28;20019;-37
2021/04/27 04:28:25;;;;;;;6.28;4.78;;;4.50;88.10;;;;;;4972916;28;20061;-36
2021/04/27 04:30:53;;;;;;;5.43;3.80;;;4.50;88.10;;;;;;4967215;28;20015;-38
2021/04/27 04:33:19;;;;;;;5.10;4.45;;;4.50;88.10;;;;;;4975401;28;20026;-32
2021/04/27 04:35:45;;;;;;;9.82;4.60;;;4.50;88.10;;;;;;4966654;28;20037;-36
2021/04/27 04:38:11;;;;;;;7.03;4.75;;;4.50;88.10;;;;;;4975895;28;20061;-37
2021/04/27 04:40:36;;;;;;;5.28;4.50;;;4.50;88.10;;;;;;4967135;28;20663;-36
2021/04/27 04:43:02;;;;;;;5.70;4.35;;;4.50;88.10;;;;;;4976267;28;20411;-35
2021/04/27 04:45:28;;;;;;;7.22;4.85;;;4.50;88.10;;;;;;4965201;28;20026;-34
2021/04/27 04:47:54;;;;;;;5.78;4.90;;;4.50;88.30;;;;;;4977611;28;20047;-37
2021/04/27 04:50:21;;;;;;;5.60;4.68;;;4.50;88.30;;;;;;4965371;28;20478;-37
2021/04/27 04:52:47;;;;;;;8.63;5.43;;;4.50;88.30;;;;;;4977414;28;20037;-36
2021/04/27 04:55:14;;;;;;;6.32;5.20;;;4.50;88.40;;;;;;4965813;28;20110;-36
2021/04/27 04:57:40;;;;;;;8.60;5.93;;;4.50;88.50;;;;;;4975260;28;20109;-37
2021/04/27 05:00:09;;;;;;;9.68;6.68;;;4.60;88.50;;;;;;4967155;28;20125;-36
2021/04/27 05:02:34;;;;;;;10.65;6.25;;;4.60;88.60;;;;;;4972713;28;20022;-38
2021/04/27 05:05:00;;;;;;;8.80;5.72;;;4.60;88.60;;;;;;4969372;28;20585;-37
2021/04/27 05:07:27;;;;;;;9.80;5.47;;;4.60;88.60;;;;;;4970715;28;20073;-34
2021/04/27 05:09:52;;;;;;;6.70;5.70;;;4.70;88.70;;;;;;4973898;28;20098;-35
2021/04/27 05:12:18;;;;;;;13.07;6.50;;;4.70;88.70;;;;;;4984578;28;20121;-38
2021/04/27 05:14:44;;;;;;;7.40;5.78;;;4.70;88.80;;;;;;4979156;28;20036;-35
2021/04/27 05:17:12;;;;;;;7.55;5.50;;;4.70;88.80;;;;;;4986870;28;20022;-36
2021/04/27 05:19:38;;;;;;;10.75;6.22;;;4.80;88.70;;;;;;4976769;28;20034;-38
2021/04/27 05:22:05;;;;;;;10.63;6.38;;;4.80;88.70;;;;;;4987047;28;20034;-37
2021/04/27 05:24:31;;;;;;;10.65;6.43;;;4.90;88.70;;;;;;4976790;28;20052;-35
2021/04/27 05:26:57;;;;;;;9.00;6.30;;;4.90;88.70;;;;;;4986820;28;20071;-36
2021/04/27 05:29:23;;;;;;;7.20;5.90;;;5.00;88.60;;;;;;4976133;28;20574;-32
2021/04/27 05:31:49;;;;;;;11.63;5.65;;;5.00;88.50;;;;;;4987819;28;20647;-41
2021/04/27 05:34:15;;;;;;;10.82;6.10;;;5.10;88.50;;;;;;4975395;28;20034;-36
2021/04/27 05:36:42;;;;;;;7.57;6.32;;;5.20;88.40;;;;;;4987476;28;20499;-36
2021/04/27 05:39:07;;;;;;;8.90;5.90;;;5.20;88.30;;;;;;4976123;28;20093;-35
2021/04/27 05:41:33;;;;;;;11.07;6.43;;;5.20;88.10;;;;;;4986250;28;20567;-39
2021/04/27 05:43:59;;;;;;;8.40;6.75;;;5.30;88.00;;;;;;4978965;28;20080;-35
2021/04/27 05:46:25;;;;;;;7.57;5.97;;;5.30;87.60;;;;;;4984362;28;20663;-38
2021/04/27 05:48:50;;;;;;;7.85;6.25;;;5.40;87.40;;;;;;4980828;28;20074;-36
2021/04/27 05:51:16;;;;;;;9.23;6.55;;;5.40;87.20;;;;;;4981356;28;20101;-38
2021/04/27 05:53:41;;;;;;;9.27;6.07;;;5.50;87.00;;;;;;4983809;28;20828;-36
2021/04/27 05:56:07;;;;;;;11.35;6.80;;;5.50;86.80;;;;;;4978946;28;20450;-37
2021/04/27 05:58:32;;;;;;;8.40;6.20;;;5.50;86.70;;;;;;4985794;28;20038;-38
2021/04/27 06:00:58;;;;;;;7.05;5.65;;;5.50;86.40;;;;;;4976505;28;20034;-37
2021/04/27 06:03:24;;;;;;;6.47;5.45;;;5.60;86.30;;;;;;4985985;28;20374;-38
2021/04/27 06:05:49;;;;;;;7.35;6.30;;;5.60;86.30;;;;;;4975877;28;20056;-38
2021/04/27 06:08:15;;;;;;;8.52;5.15;;;5.70;86.20;;;;;;4987164;28;20049;-38
2021/04/27 06:10:40;;;;;;;12.63;5.88;;;5.70;86.00;;;;;;4978283;28;20062;-36
2021/04/27 06:13:06;;;;;;;8.55;5.70;;;5.80;86.00;;;;;;4986683;28;20064;-35
2021/04/27 06:15:31;;;;;;;7.07;5.95;;;5.80;85.70;;;;;;4973831;28;20062;-35
2021/04/27 06:17:57;;;;;;;8.13;6.03;;;5.90;85.50;;;;;;4987271;28;20054;-37
2021/04/27 06:20:23;;;;;;;6.28;5.32;;;5.90;85.30;;;;;;4976739;28;20031;-38
2021/04/27 06:22:48;;;;;;;8.45;6.28;;;6.00;85.20;;;;;;4984017;28;20026;-35
2021/04/27 06:25:14;;;;;;;6.53;5.57;;;6.00;85.10;;;;;;4979748;28;20344;-36
2021/04/27 06:27:39;;;;;;;6.03;5.25;;;6.10;84.70;;;;;;4981653;28;20130;-34
2021/04/27 06:30:07;;;;;;;7.88;5.43;;;6.20;84.30;;;;;;4981198;28;20550;-38
2021/04/27 06:32:33;;;;;;;8.07;5.20;;;6.20;84.20;;;;;;4979757;28;20101;-34
2021/04/27 06:34:58;;;;;;;8.88;5.78;;;6.30;83.90;;;;;;4984402;28;20470;-34
2021/04/27 06:37:24;;;;;;;8.27;5.90;;;6.30;83.80;;;;;;4976881;28;20023;-38
2021/04/27 06:39:50;;;;;;;10.15;5.28;;;6.40;83.10;;;;;;4984630;28;20039;-35
2021/04/27 06:42:15;;;;;;;7.03;5.25;;;6.50;83.10;;;;;;4976006;28;20026;-37
2021/04/27 06:44:41;;;;;;;6.57;5.20;;;6.50;83.00;;;;;;4984976;28;20077;-38
2021/04/27 06:47:08;;;;;;;7.85;4.80;;;6.60;82.60;;;;;;4975316;28;20034;-35
2021/04/27 06:49:35;;;;;;;5.82;4.50;;;6.60;82.50;;;;;;4986680;28;20049;-37
2021/04/27 06:52:01;;;;;;;5.90;4.97;;;6.70;82.50;;;;;;4973588;28;20085;-32
2021/04/27 06:54:27;;;;;;;8.45;4.38;;;6.80;82.40;;;;;;4986864;28;20030;-38
2021/04/27 06:56:52;;;;;;;7.25;5.50;;;6.90;82.20;;;;;;4973857;28;20422;-38
2021/04/27 06:59:20;;;;;;;8.30;5.03;;;7.00;82.00;;;;;;4986479;28;20042;-37
2021/04/27 07:01:49;;;;;;;7.28;4.75;;;7.00;81.90;;;;;;4975678;28;20098;-37
2021/04/27 07:04:15;;;;;;;6.50;5.35;;;7.10;81.70;;;;;;4984438;28;20107;-34
2021/04/27 07:06:41;;;;;;;7.35;4.68;;;7.20;81.40;;;;;;4977968;28;20136;-34
2021/04/27 07:09:06;;;;;;;6.70;4.53;;;7.30;81.00;;;;;;4981627;28;20427;-37
2021/04/27 07:11:32;;;;;;;6.80;5.43;;;7.30;80.90;;;;;;4977476;28;20046;-34
2021/04/27 07:13:59;;;;;;;8.18;4.75;;;7.40;80.70;;;;;;4973144;28;20019;-36
2021/04/27 07:16:24;;;;;;;6.50;4.78;;;7.40;80.40;;;;;;4969522;28;20127;-38
2021/04/27 07:18:50;;;;;;;6.82;4.43;;;7.60;80.50;;;;;;4974898;28;20487;-35
2021/04/27 07:21:18;;;;;;;5.35;4.30;;;7.60;80.50;;;;;;4967915;28;20034;-35
2021/04/27 07:23:43;;;;;;;7.35;4.78;;;7.70;80.50;;;;;;4977037;28;20498;-36
2021/04/27 07:26:12;;;;;;;7.07;4.53;;;7.80;80.00;;;;;;4967465;28;20069;-38
2021/04/27 07:28:37;;;;;;;7.22;5.10;;;7.90;79.50;;;;;;4976744;28;20046;-36
2021/04/27 07:31:03;;;;;;;6.85;5.00;;;7.90;79.50;;;;;;4966151;28;20383;-38
2021/04/27 07:33:29;;;;;;;5.57;4.53;;;8.00;79.20;;;;;;4971555;28;20031;-37
2021/04/27 07:35:54;;;;;;;7.70;4.40;;;8.10;79.10;;;;;;4985541;28;20556;-36
2021/04/27 07:38:23;;;;;;;7.75;5.20;;;8.20;78.80;;;;;;4973299;28;20045;-38
2021/04/27 07:40:49;;;;;;;8.90;5.55;;;8.20;78.50;;;;;;4984767;28;20034;-37
2021/04/27 07:43:15;;;;;;;6.78;5.20;;;8.20;77.90;;;;;;4975129;28;20054;-36
2021/04/27 07:45:41;;;;;;;9.63;5.43;;;8.20;77.70;;;;;;4983906;28;20494;-38
2021/04/27 07:48:07;;;;;;;7.78;5.50;;;8.20;77.40;;;;;;4976242;28;20045;-35
2021/04/27 07:50:34;;;;;;;8.35;5.93;;;8.20;77.50;;;;;;4981904;28;20030;-37
2021/04/27 07:52:59;;;;;;;8.95;5.30;;;8.20;77.50;;;;;;4978705;28;20027;-37
2021/04/27 07:55:25;;;;;;;8.32;5.85;;;8.30;77.70;;;;;;4978894;28;20026;-37
2021/04/27 07:57:54;;;;;;;9.40;5.35;;;8.30;77.60;;;;;;4980571;28;20019;-38
2021/04/27 08:00:21;;;;;;;6.28;4.88;;;8.40;77.20;;;;;;4973644;28;20042;-36
2021/04/27 08:02:46;;;;;;;6.25;5.28;;;8.50;77.20;;;;;;4966412;28;20019;-34
2021/04/27 08:05:13;;;;;;;7.50;4.68;;;8.60;77.10;;;;;;4976295;28;20037;-39
2021/04/27 08:07:39;;;;;;;7.82;5.00;;;8.70;77.00;;;;;;4966592;28;20022;-41
2021/04/27 08:10:07;;;;;;;5.85;4.65;;;8.80;77.10;;;;;;4976631;28;20051;-39
2021/04/27 08:12:33;;;;;;;9.80;4.80;;;8.90;77.00;;;;;;4984766;28;20458;-38
2021/04/27 08:14:59;;;;;;;6.93;4.90;;;9.00;76.70;;;;;;4973020;28;20169;-38
2021/04/27 08:17:24;;;;;;;6.00;4.20;;;9.00;75.60;;;;;;4985503;28;20134;-38
2021/04/27 08:19:51;;;;;;;7.80;4.20;;;9.10;75.40;;;;;;4972804;28;20035;-38
2021/04/27 08:22:17;;;;;;;5.28;3.78;;;9.20;74.50;;;;;;4984896;28;20021;-38
2021/04/27 08:24:46;;;;;;;6.28;4.10;;;9.30;73.90;;;;;;4973781;28;20077;-34
2021/04/27 08:27:14;;;;;;;6.05;3.70;;;9.30;73.80;;;;;;4985607;28;20022;-38
2021/04/27 08:29:40;;;;;;;4.28;3.50;;;9.40;73.20;;;;;;4974485;28;20054;-37
2021/04/27 08:32:09;;;;;;;6.40;4.53;;;9.50;73.00;;;;;;4982553;28;20026;-39
2021/04/27 08:34:35;;;;;;;6.18;4.30;;;9.60;72.70;;;;;;4977420;28;20031;-33
2021/04/27 08:37:01;;;;;;;5.55;3.53;;;9.70;71.60;;;;;;4980635;28;20138;-38
2021/04/27 08:39:27;;;;;;;5.13;3.65;;;9.70;71.00;;;;;;4980319;28;20023;-38
2021/04/27 08:41:53;;;;;;;5.90;3.70;;;9.80;70.60;;;;;;4978645;28;20398;-36
2021/04/27 08:44:19;;;;;;;4.70;3.70;;;9.90;70.20;;;;;;4984711;28;20030;-39
2021/04/27 08:46:48;;;;;;;4.40;3.97;;;10.00;69.10;;;;;;4979787;28;20048;-38
2021/04/27 08:49:14;;;;;;;4.68;3.65;;;10.10;69.30;;;;;;4987653;28;20086;-38
2021/04/27 08:51:40;;;;;;;8.00;3.65;;;10.10;69.40;;;;;;4977789;28;20027;-38
2021/04/27 08:54:07;;;;;;;9.60;3.95;;;10.20;68.60;;;;;;4986823;28;20029;-35
2021/04/27 08:56:33;;;;;;;9.05;3.70;;;10.30;67.90;;;;;;4977050;28;20015;-37
2021/04/27 08:58:59;;;;;;;6.00;3.50;;;10.30;67.90;;;;;;4989224;28;20033;-37
2021/04/27 09:01:25;;;;;;;4.93;3.70;;;10.40;68.00;;;;;;4975885;28;20055;-38
2021/04/27 09:03:52;;;;;;;8.60;3.58;;;10.50;68.10;;;;;;4988014;28;20106;-37
2021/04/27 09:06:22;;;;;;;8.98;3.85;;;10.50;67.70;;;;;;4976243;28;20132;-40
2021/04/27 09:08:50;;;;;;;6.13;4.38;;;10.60;66.80;;;;;;4988016;28;20505;-36
2021/04/27 09:11:29;;;;;;;5.85;4.00;;;10.70;66.10;;;;;;4986005;28;20457;-38
2021/04/27 09:14:19;;;;;;;6.00;4.28;;;10.70;66.40;;;;;;4988436;28;20034;-35
2021/04/27 09:16:52;;;;;;;7.82;4.38;;;10.80;66.90;;;;;;4968707;28;20045;-39
2021/04/27 09:19:44;;;;;;;7.60;4.80;;;10.90;66.70;;;;;;4968943;28;20019;-36
2021/04/27 09:22:25;;;;;;;8.25;4.95;;;10.90;65.80;;;;;;4976090;28;20026;-35
2021/04/27 09:24:52;;;;;;;4.85;4.35;;;11.00;63.80;;;;;;4987873;28;20030;-39
2021/04/27 09:27:34;;;;;;;6.38;3.95;;;11.10;63.60;;;;;;4976156;28;20018;-37
2021/04/27 09:30:19;;;;;;;7.90;3.72;;;11.10;64.10;;;;;;4988105;28;20053;-38
2021/04/27 09:33:07;;;;;;;3.92;3.08;;;11.10;64.50;;;;;;4981610;28;20097;-39
2021/04/27 09:35:37;;;;;;;6.45;3.78;;;11.20;64.50;;;;;;4969904;28;20023;-37
2021/04/27 09:38:22;;;;;;;4.57;3.50;;;11.30;62.50;;;;;;4979669;28;20065;-38
2021/04/27 09:41:04;;;;;;;6.57;3.55;;;11.40;62.30;;;;;;4968982;28;20030;-35
2021/04/27 09:43:33;;;;;;;3.70;3.30;;;11.40;62.50;;;;;;4977103;28;20045;-38
2021/04/27 09:46:02;;;;;;;8.02;4.25;;;11.50;62.20;;;;;;4984780;28;20030;-38
2021/04/27 09:48:47;;;;;;;4.93;3.85;;;11.60;60.90;;;;;;4979302;28;20089;-35
2021/04/27 09:51:12;;;;;;;3.70;3.22;;;11.70;60.70;;;;;;4969760;28;20441;-37
2021/04/27 09:53:43;;;;;;;3.92;3.53;;;11.80;59.30;;;;;;4978344;28;20033;-37
2021/04/27 09:56:11;;;;;;;5.03;3.00;;;11.80;59.20;;;;;;4968491;28;20053;-39
2021/04/27 09:58:37;;;;;;;7.78;3.35;;;11.90;59.80;;;;;;4979014;28;20467;-37
2021/04/27 10:01:05;;;;;;;4.57;3.45;;;12.00;59.50;;;;;;4967849;28;20033;-38
2021/04/27 10:03:31;;;;;;;7.65;3.40;;;12.00;59.70;;;;;;4974535;28;20046;-37
2021/04/27 10:05:58;;;;;;;5.88;3.40;;;12.10;57.60;;;;;;4987472;28;20239;-36
2021/04/27 10:08:24;;;;;;;6.15;3.55;;;12.10;57.60;;;;;;4974585;28;20062;-38
2021/04/27 10:10:50;;;;;;;3.75;3.00;;;12.20;56.70;;;;;;4981137;28;20054;-37
2021/04/27 10:13:16;;;;;;;6.32;2.92;;;12.20;57.30;;;;;;4978964;28;20030;-38
2021/04/27 10:15:42;;;;;;;3.28;2.63;;;12.30;57.60;;;;;;4968502;28;20026;-36
2021/04/27 10:18:10;;;;;;;4.57;3.45;;;12.40;57.70;;;;;;4975877;28;20023;-37
2021/04/27 10:20:37;;;;;;;4.53;3.40;;;12.50;57.50;;;;;;4970442;28;20073;-33
2021/04/27 10:23:08;;;;;;;5.93;2.88;;;12.50;57.20;;;;;;4973101;28;20061;-37
2021/04/27 10:25:34;;;;;;;3.80;3.00;;;12.60;56.90;;;;;;4972533;28;20026;-39
2021/04/27 10:28:04;;;;;;;4.85;3.30;;;12.60;56.60;;;;;;4971217;28;20477;-37
2021/04/27 10:30:33;;;;;;;4.55;3.22;;;12.70;55.20;;;;;;4974535;28;20030;-39
2021/04/27 10:33:01;;;;;;;4.28;3.03;;;12.70;54.60;;;;;;4970075;28;20124;-37
2021/04/27 10:35:30;;;;;;;5.50;3.00;;;12.80;55.30;;;;;;4975581;28;20114;-40
2021/04/27 10:38:11;;;;;;;3.70;2.53;;;12.80;55.60;;;;;;4968555;28;20109;-37
2021/04/27 10:40:53;;;;;;;6.82;3.80;;;12.90;56.10;;;;;;4977589;28;20058;-38
2021/04/27 10:43:27;;;;;;;5.80;3.53;;;12.90;54.10;;;;;;4981950;28;20038;-38
2021/04/27 10:46:18;;;;;;;4.28;3.05;;;13.00;53.00;;;;;;4974843;28;20478;-38
2021/04/27 10:48:45;;;;;;;4.60;2.95;;;13.00;53.10;;;;;;4971216;28;20105;-37
2021/04/27 10:51:20;;;;;;;7.00;3.17;;;13.00;52.40;;;;;;4974183;28;20085;-38
2021/04/27 10:54:10;;;;;;;5.45;3.10;;;13.10;52.70;;;;;;4970274;28;20379;-35
2021/04/27 10:57:04;;;;;;;4.25;3.60;;;13.10;53.20;;;;;;4971407;28;20062;-34
2021/04/27 10:59:51;;;;;;;4.82;3.88;;;13.20;52.10;;;;;;4975037;28;20324;-34
2021/04/27 11:02:21;;;;;;;3.70;3.00;;;13.20;52.50;;;;;;4967325;28;20038;-38
2021/04/27 11:04:48;;;;;;;4.35;3.70;;;13.30;52.50;;;;;;4975084;28;20051;-38
2021/04/27 11:07:20;;;;;;;4.53;3.40;;;13.30;52.30;;;;;;4968977;28;20553;-37
2021/04/27 11:09:57;;;;;;;5.50;3.30;;;13.30;51.70;;;;;;4973381;28;20378;-38
2021/04/27 11:12:33;;;;;;;5.05;4.13;;;13.20;52.00;;;;;;4968879;28;20023;-38
2021/04/27 11:15:00;;;;;;;3.85;3.50;;;13.30;51.30;;;;;;4974515;28;20152;-42
2021/04/27 11:17:36;;;;;;;5.93;3.55;;;13.30;50.70;;;;;;4970891;28;20069;-35
2021/04/27 11:20:07;;;;;;;4.75;3.42;;;13.30;51.20;;;;;;4973080;28;20811;-37
2021/04/27 11:22:35;;;;;;;3.97;3.40;;;13.30;51.40;;;;;;4971151;28;20058;-34
2021/04/27 11:25:03;;;;;;;5.25;3.88;;;13.40;50.80;;;;;;4971323;28;20512;-35
2021/04/27 11:27:37;;;;;;;6.32;3.60;;;13.40;50.60;;;;;;4972230;28;20092;-37
2021/04/27 11:30:12;;;;;;;5.75;3.10;;;13.40;50.80;;;;;;4970662;28;20076;-37
2021/04/27 11:32:43;;;;;;;3.55;2.95;;;13.50;51.50;;;;;;4972619;28;20022;-36
2021/04/27 11:35:20;;;;;;;5.03;3.63;;;13.50;51.70;;;;;;4969902;28;20046;-36
2021/04/27 11:37:48;;;;;;;7.38;3.60;;;13.60;51.60;;;;;;4972671;28;20030;-37
2021/04/27 11:40:38;;;;;;;5.70;3.35;;;13.60;51.10;;;;;;4969458;28;20019;-34
2021/04/27 11:43:09;;;;;;;3.85;3.20;;;13.70;51.40;;;;;;4971850;28;20069;-37
2021/04/27 11:45:37;;;;;;;3.80;2.97;;;13.80;51.40;;;;;;4969852;28;20054;-37
2021/04/27 11:48:05;;;;;;;4.03;3.35;;;13.80;51.70;;;;;;4973292;28;20035;-39
2021/04/27 11:50:34;;;;;;;3.55;2.78;;;13.90;52.00;;;;;;4968242;28;20502;-37
2021/04/27 11:53:02;;;;;;;3.03;2.70;;;14.00;52.30;;;;;;4985378;28;20053;-38
2021/04/27 11:55:51;;;;;;;3.03;2.72;;;14.00;51.70;;;;;;4982023;28;20162;-38
2021/04/27 11:58:18;;;;;;;9.90;3.20;;;14.00;51.70;;;;;;4977179;28;20386;-38
2021/04/27 12:00:54;;;;;;;4.78;3.58;;;14.10;51.60;;;;;;4980587;28;20073;-37
2021/04/27 12:03:32;;;;;;;3.95;3.55;;;14.10;50.60;;;;;;4974286;28;20546;-38
2021/04/27 12:06:07;;;;;;;4.50;3.63;;;14.20;50.10;;;;;;4967716;28;20027;-38
2021/04/27 12:08:34;;;;;;;3.72;3.33;;;14.20;49.90;;;;;;4974039;28;20629;-37
2021/04/27 12:11:12;;;;;;;4.10;3.67;;;14.10;50.00;;;;;;4969365;28;20050;-39
2021/04/27 12:13:46;;;;;;;5.25;2.88;;;14.20;49.30;;;;;;4975675;28;20161;-37
2021/04/27 12:16:15;;;;;;;5.47;3.88;;;14.20;49.80;;;;;;4981165;28;20030;-38
2021/04/27 12:19:02;;;;;;;6.88;4.47;;;14.30;48.90;;;;;;4967290;28;20474;-36
2021/04/27 12:21:38;;;;;;;6.10;3.58;;;14.30;47.20;;;;;;4972774;28;20493;-36
2021/04/27 12:24:14;;;;;;;4.70;3.80;;;14.20;47.00;;;;;;4980221;28;20033;-37
2021/04/27 12:26:48;;;;;;;6.80;3.90;;;14.20;46.10;;;;;;4986546;28;20038;-37
2021/04/27 12:29:15;;;;;;;4.38;3.47;;;14.20;46.10;;;;;;4979791;28;20027;-37
2021/04/27 12:31:43;;;;;;;4.75;2.85;;;14.20;46.60;;;;;;4987546;28;20128;-38
2021/04/27 12:34:16;;;;;;;5.63;3.63;;;14.20;47.40;;;;;;4977246;28;20084;-37
2021/04/27 12:36:44;;;;;;;5.32;4.13;;;14.30;47.90;;;;;;4986889;28;20098;-36
2021/04/27 12:39:35;;;;;;;8.02;4.32;;;14.40;47.80;;;;;;4977923;28;20030;-39
2021/04/27 12:42:04;;;;;;;4.32;3.42;;;14.40;47.50;;;;;;4986891;28;20474;-37
2021/04/27 12:44:39;;;;;;;7.82;4.15;;;14.40;47.30;;;;;;4977878;28;20083;-38
2021/04/27 12:47:22;;;;;;;7.90;3.85;;;14.50;47.00;;;;;;4986859;28;20031;-37
2021/04/27 12:50:12;;;;;;;5.28;3.60;;;14.50;45.70;;;;;;4977935;28;20045;-37
2021/04/27 12:52:43;;;;;;;5.80;3.50;;;14.50;44.90;;;;;;4984173;28;20031;-35
2021/04/27 12:55:17;;;;;;;4.95;4.00;;;14.50;45.00;;;;;;4977527;28;20026;-37
2021/04/27 12:57:42;;;;;;;3.95;3.13;;;14.50;45.30;;;;;;4970147;28;20518;-38
2021/04/27 13:00:11;;;;;;;3.65;3.35;;;14.50;45.30;;;;;;4978524;28;20038;-38